createdAt,value
2023-04-06T00:01:03.226Z,89.85
2023-04-06T00:03:30.246Z,89.74
2023-04-06T00:05:57.329Z,89.33
2023-04-06T00:08:24.716Z,90.45
2023-04-06T00:10:51.905Z,88.33
2023-04-06T00:13:19.184Z,89.10
2023-04-06T00:15:46.152Z,89.34
2023-04-06T00:18:13.393Z,89.76
2023-04-06T00:20:41.319Z,89.38
2023-04-06T00:23:08.198Z,89.72
2023-04-06T00:25:35.475Z,91.06
2023-04-06T00:28:02.457Z,90.76
2023-04-06T00:30:29.265Z,91.02
2023-04-06T00:32:56.692Z,89.70
2023-04-06T00:35:24.311Z,90.37
2023-04-06T00:37:51.302Z,90.19
2023-04-06T00:40:18.567Z,90.64
2023-04-06T00:42:46.260Z,90.73
2023-04-06T00:45:13.328Z,90.75
2023-04-06T00:47:40.545Z,91.39
2023-04-06T00:50:08.109Z,90.99
2023-04-06T00:52:36.730Z,90.54
2023-04-06T00:55:05.360Z,90.27
2023-04-06T00:57:32.983Z,91.07
2023-04-06T01:00:00.165Z,91.04
2023-04-06T01:02:27.526Z,90.90
2023-04-06T01:04:56.041Z,91.39
2023-04-06T01:07:36.525Z,91.31
2023-04-06T01:10:11.600Z,91.57
2023-04-06T01:12:39.949Z,91.65
2023-04-06T01:15:14.863Z,90.71
2023-04-06T01:17:44.374Z,90.83
2023-04-06T01:20:15.628Z,90.31
2023-04-06T01:22:43.118Z,90.54
2023-04-06T01:25:11.975Z,90.48
2023-04-06T01:27:57.274Z,90.20
2023-04-06T01:30:33.446Z,90.23
2023-04-06T01:33:06.633Z,90.41
2023-04-06T01:35:52.527Z,90.63
2023-04-06T01:38:20.800Z,90.10
2023-04-06T01:40:49.284Z,89.99
2023-04-06T01:43:18.485Z,89.63
2023-04-06T01:46:14.748Z,89.61
2023-04-06T01:48:43.653Z,89.71
2023-04-06T01:51:19.917Z,89.54
2023-04-06T01:53:56.822Z,89.48
2023-04-06T01:56:31.377Z,89.78
2023-04-06T01:59:05.361Z,89.54
2023-04-06T02:01:38.231Z,90.93
2023-04-06T02:04:05.372Z,90.98
2023-04-06T02:06:32.567Z,90.24
2023-04-06T02:09:01.425Z,90.35
2023-04-06T02:11:28.708Z,90.41
2023-04-06T02:13:56.848Z,90.43
2023-04-06T02:16:27.973Z,90.85
2023-04-06T02:18:55.101Z,90.71
2023-04-06T02:21:22.061Z,89.85
2023-04-06T02:23:50.464Z,89.98
2023-04-06T02:26:18.380Z,89.89
2023-04-06T02:28:45.788Z,89.69
2023-04-06T02:31:12.782Z,89.80
2023-04-06T02:33:40.536Z,89.99
2023-04-06T02:36:07.896Z,90.04
2023-04-06T02:38:35.277Z,89.98
2023-04-06T02:41:03.269Z,89.48
2023-04-06T02:43:30.678Z,89.94
2023-04-06T02:46:06.539Z,89.83
2023-04-06T02:48:38.261Z,88.53
2023-04-06T02:51:05.604Z,88.58
2023-04-06T02:53:32.856Z,89.67
2023-04-06T02:55:59.939Z,89.84
2023-04-06T02:58:35.658Z,89.44
2023-04-06T03:01:02.601Z,89.04
2023-04-06T03:03:30.216Z,88.88
2023-04-06T03:05:59.760Z,89.01
2023-04-06T03:08:30.415Z,88.89
2023-04-06T03:10:57.374Z,88.39
2023-04-06T03:13:32.749Z,89.10
2023-04-06T03:15:59.852Z,89.20
2023-04-06T03:18:27.593Z,89.23
2023-04-06T03:20:56.642Z,88.53
2023-04-06T03:23:30.025Z,88.61
2023-04-06T03:26:00.148Z,89.44
2023-04-06T03:28:27.521Z,89.23
2023-04-06T03:30:58.252Z,88.96
2023-04-06T03:33:43.559Z,89.52
2023-04-06T03:36:16.727Z,89.31
2023-04-06T03:38:44.720Z,88.87
2023-04-06T03:41:13.858Z,88.86
2023-04-06T03:43:44.710Z,88.19
2023-04-06T03:46:12.136Z,88.52
2023-04-06T03:48:39.193Z,88.54
2023-04-06T03:51:08.061Z,89.13
2023-04-06T03:53:35.086Z,88.90
2023-04-06T03:56:04.614Z,88.88
2023-04-06T03:58:32.120Z,89.20
2023-04-06T04:00:59.228Z,89.37
2023-04-06T04:03:28.679Z,89.41
2023-04-06T04:05:59.022Z,89.51
2023-04-06T04:08:26.655Z,88.47
2023-04-06T04:10:53.737Z,89.50
2023-04-06T04:13:20.818Z,89.07
2023-04-06T04:15:50.504Z,89.31
2023-04-06T04:18:17.568Z,89.24
2023-04-06T04:20:44.691Z,89.17
2023-04-06T04:23:12.878Z,88.83
2023-04-06T04:25:40.008Z,89.54
2023-04-06T04:28:07.189Z,89.17
2023-04-06T04:30:35.087Z,89.20
2023-04-06T04:33:07.192Z,89.48
2023-04-06T04:35:34.309Z,89.89
2023-04-06T04:38:01.416Z,89.73
2023-04-06T04:40:28.502Z,90.02
2023-04-06T04:43:04.008Z,90.12
2023-04-06T04:45:34.392Z,90.78
2023-04-06T04:48:12.121Z,90.35
2023-04-06T04:50:51.166Z,88.41
2023-04-06T04:53:23.152Z,88.31
2023-04-06T04:55:53.664Z,89.34
2023-04-06T04:58:21.363Z,89.60
2023-04-06T05:00:53.369Z,88.70
2023-04-06T05:03:25.997Z,88.59
2023-04-06T05:06:00.147Z,88.84
2023-04-06T05:08:31.208Z,89.38
2023-04-06T05:10:58.929Z,87.61
2023-04-06T05:13:27.144Z,88.22
2023-04-06T05:16:02.151Z,89.06
2023-04-06T05:18:32.893Z,89.00
2023-04-06T05:21:01.111Z,89.00
2023-04-06T05:23:37.382Z,87.49
2023-04-06T05:26:04.518Z,87.57
2023-04-06T05:28:32.510Z,88.35
2023-04-06T05:31:01.072Z,87.68
2023-04-06T05:33:33.783Z,88.59
2023-04-06T05:36:08.182Z,88.01
2023-04-06T05:38:39.337Z,87.99
2023-04-06T05:41:17.123Z,88.42
2023-04-06T05:43:44.251Z,87.93
2023-04-06T05:46:11.694Z,88.55
2023-04-06T05:48:38.796Z,89.09
2023-04-06T05:51:07.378Z,88.46
2023-04-06T05:53:43.505Z,87.38
2023-04-06T05:56:10.497Z,88.13
2023-04-06T05:58:37.752Z,87.91
2023-04-06T06:01:06.483Z,87.24
2023-04-06T06:03:40.821Z,87.74
2023-04-06T06:06:07.937Z,88.15
2023-04-06T06:08:45.643Z,88.41
2023-04-06T06:11:16.204Z,88.13
2023-04-06T06:13:43.156Z,88.59
2023-04-06T06:16:10.845Z,89.61
2023-04-06T06:18:43.953Z,88.18
2023-04-06T06:21:13.346Z,88.83
2023-04-06T06:23:43.405Z,90.47
2023-04-06T06:26:14.659Z,90.07
2023-04-06T06:28:41.635Z,89.39
2023-04-06T06:31:10.551Z,89.11
2023-04-06T06:33:37.449Z,88.32
2023-04-06T06:36:04.820Z,89.54
2023-04-06T06:38:31.847Z,88.88
2023-04-06T06:40:59.215Z,88.93
2023-04-06T06:43:29.647Z,88.97
2023-04-06T06:46:00.533Z,87.83
2023-04-06T06:48:27.831Z,88.37
2023-04-06T06:50:54.902Z,88.14
2023-04-06T06:53:22.065Z,87.49
2023-04-06T06:55:51.825Z,87.95
2023-04-06T06:58:20.935Z,87.96
2023-04-06T07:00:48.562Z,87.02
2023-04-06T07:03:16.017Z,88.10
2023-04-06T07:05:54.180Z,87.34
2023-04-06T07:08:24.168Z,87.85
2023-04-06T07:10:53.859Z,88.03
2023-04-06T07:13:24.408Z,87.54
2023-04-06T07:15:54.243Z,87.79
2023-04-06T07:18:22.018Z,87.45
2023-04-06T07:20:49.881Z,87.13
2023-04-06T07:23:17.732Z,87.76
2023-04-06T07:25:45.779Z,87.60
2023-04-06T07:28:12.876Z,87.97
2023-04-06T07:30:40.381Z,89.05
2023-04-06T07:33:09.611Z,89.37
2023-04-06T07:35:37.811Z,89.91
2023-04-06T07:38:06.401Z,88.80
2023-04-06T07:40:34.616Z,87.58
2023-04-06T07:43:03.204Z,86.89
2023-04-06T07:45:31.018Z,88.11
2023-04-06T07:47:59.523Z,87.65
2023-04-06T07:50:28.143Z,87.91
2023-04-06T07:52:56.433Z,88.19
2023-04-06T07:55:23.477Z,89.45
2023-04-06T07:57:50.621Z,89.03
2023-04-06T08:00:18.043Z,88.67
2023-04-06T08:02:45.085Z,88.63
2023-04-06T08:05:12.231Z,86.23
2023-04-06T08:07:39.336Z,86.58
2023-04-06T08:10:06.557Z,85.50
2023-04-06T08:12:36.146Z,84.40
2023-04-06T08:15:04.727Z,84.46
2023-04-06T08:17:33.013Z,84.02
2023-04-06T08:20:00.450Z,80.33
2023-04-06T08:22:27.515Z,80.59
2023-04-06T08:24:54.490Z,79.88
2023-04-06T08:27:21.771Z,80.29
2023-04-06T08:29:50.524Z,78.44
2023-04-06T08:32:17.613Z,79.21
2023-04-06T08:34:44.533Z,80.16
2023-04-06T08:37:11.677Z,79.08
2023-04-06T08:39:38.892Z,78.37
2023-04-06T08:42:06.657Z,78.78
2023-04-06T08:44:34.144Z,77.17
2023-04-06T08:47:01.554Z,74.66
2023-04-06T08:49:29.161Z,76.70
2023-04-06T08:51:58.325Z,77.84
2023-04-06T08:54:25.917Z,76.76
2023-04-06T08:56:54.722Z,76.54
2023-04-06T08:59:22.102Z,75.64
2023-04-06T09:01:49.314Z,74.83
2023-04-06T09:04:27.595Z,76.16
2023-04-06T09:06:54.781Z,75.84
2023-04-06T09:09:24.695Z,72.93
2023-04-06T09:11:53.207Z,72.28
2023-04-06T09:14:46.557Z,73.73
2023-04-06T09:17:22.501Z,72.03
2023-04-06T09:19:50.236Z,73.24
2023-04-06T09:22:17.501Z,72.13
2023-04-06T09:24:55.805Z,73.03
2023-04-06T09:27:36.987Z,70.20
2023-04-06T09:30:32.150Z,70.20
2023-04-06T09:33:00.855Z,70.11
2023-04-06T09:35:29.973Z,70.01
2023-04-06T09:37:57.679Z,69.54
2023-04-06T09:40:25.348Z,70.51
2023-04-06T09:42:58.621Z,71.04
2023-04-06T09:45:28.264Z,67.29
2023-04-06T09:47:57.680Z,68.55
2023-04-06T09:50:27.139Z,66.45
2023-04-06T09:52:57.849Z,68.22
2023-04-06T09:55:48.949Z,69.13
2023-04-06T09:58:27.052Z,67.86
2023-04-06T10:01:04.390Z,67.54
2023-04-06T10:04:16.112Z,69.46
2023-04-06T10:06:43.206Z,68.25
2023-04-06T10:09:10.634Z,69.02
2023-04-06T10:11:38.204Z,67.22
2023-04-06T10:14:05.447Z,67.83
2023-04-06T10:16:33.213Z,67.73
2023-04-06T10:19:11.203Z,66.84
2023-04-06T10:21:40.922Z,67.82
2023-04-06T10:24:14.481Z,67.76
2023-04-06T10:26:41.604Z,68.77
2023-04-06T10:29:08.625Z,66.61
2023-04-06T10:31:44.173Z,66.66
2023-04-06T10:34:11.348Z,65.26
2023-04-06T10:36:39.115Z,65.22
2023-04-06T10:39:07.678Z,66.40
2023-04-06T10:41:35.695Z,66.81
2023-04-06T10:44:03.170Z,64.00
2023-04-06T10:46:32.040Z,66.81
2023-04-06T10:49:01.276Z,67.93
2023-04-06T10:51:29.942Z,66.20
2023-04-06T10:53:59.333Z,64.85
2023-04-06T10:56:29.024Z,64.27
2023-04-06T10:58:59.161Z,64.66
2023-04-06T11:01:28.550Z,63.57
2023-04-06T11:04:00.390Z,65.07
2023-04-06T11:06:30.756Z,65.58
2023-04-06T11:08:58.859Z,63.58
2023-04-06T11:11:27.872Z,63.06
2023-04-06T11:14:00.660Z,64.15
2023-04-06T11:16:32.866Z,65.07
2023-04-06T11:19:02.563Z,64.02
2023-04-06T11:21:44.626Z,64.13
2023-04-06T11:24:12.751Z,63.24
2023-04-06T11:26:52.423Z,63.75
2023-04-06T11:29:24.263Z,63.47
2023-04-06T11:32:01.500Z,63.27
2023-04-06T11:34:31.350Z,61.34
2023-04-06T11:37:00.309Z,59.39
2023-04-06T11:39:28.969Z,60.27
2023-04-06T11:41:59.640Z,60.94
2023-04-06T11:44:36.755Z,58.93
2023-04-06T11:47:05.042Z,59.96
2023-04-06T11:49:33.167Z,61.07
2023-04-06T11:52:01.675Z,60.27
2023-04-06T11:54:36.904Z,62.27
2023-04-06T11:57:04.851Z,62.65
2023-04-06T11:59:33.249Z,60.75
2023-04-06T12:02:00.434Z,62.04
2023-04-06T12:04:27.574Z,60.99
2023-04-06T12:06:54.496Z,61.07
2023-04-06T12:09:22.015Z,61.03
2023-04-06T12:11:49.156Z,59.92
2023-04-06T12:14:16.219Z,61.43
2023-04-06T12:16:43.490Z,61.09
2023-04-06T12:19:10.943Z,60.08
2023-04-06T12:21:41.561Z,62.19
2023-04-06T12:24:09.474Z,60.44
2023-04-06T12:26:38.184Z,60.65
2023-04-06T12:29:08.453Z,59.56
2023-04-06T12:31:40.131Z,58.68
2023-04-06T12:34:08.556Z,59.23
2023-04-06T12:36:35.720Z,61.45
2023-04-06T12:39:03.776Z,61.05
2023-04-06T12:41:30.894Z,58.67
2023-04-06T12:43:58.199Z,59.51
2023-04-06T12:46:25.181Z,60.80
2023-04-06T12:48:54.818Z,58.55
2023-04-06T12:51:22.913Z,58.12
2023-04-06T12:53:50.147Z,58.94
2023-04-06T12:56:18.639Z,58.35
2023-04-06T12:58:46.546Z,58.69
2023-04-06T13:01:14.382Z,60.73
2023-04-06T13:03:42.396Z,58.83
2023-04-06T13:06:09.955Z,60.38
2023-04-06T13:08:39.363Z,58.03
2023-04-06T13:11:09.210Z,59.90
2023-04-06T13:13:37.253Z,58.56
2023-04-06T13:16:06.868Z,59.13
2023-04-06T13:18:35.248Z,59.92
2023-04-06T13:21:02.270Z,59.74
2023-04-06T13:23:29.453Z,57.89
2023-04-06T13:26:01.778Z,58.14
2023-04-06T13:28:29.205Z,58.14
2023-04-06T13:30:56.969Z,59.62
2023-04-06T13:33:25.097Z,57.72
2023-04-06T13:35:52.220Z,58.58
2023-04-06T13:38:19.484Z,57.13
2023-04-06T13:40:46.489Z,57.28
2023-04-06T13:43:13.654Z,57.20
2023-04-06T13:45:41.335Z,57.08
2023-04-06T13:48:08.358Z,57.76
2023-04-06T13:50:36.171Z,57.17
2023-04-06T13:53:03.198Z,58.38
2023-04-06T13:55:31.574Z,57.81
2023-04-06T13:57:58.854Z,57.62
2023-04-06T14:00:25.970Z,57.76
2023-04-06T14:02:56.373Z,57.20
2023-04-06T14:05:24.920Z,58.89
2023-04-06T14:07:51.910Z,57.91
2023-04-06T14:10:22.310Z,58.56
2023-04-06T14:12:49.286Z,57.71
2023-04-06T14:15:16.644Z,58.16
2023-04-06T14:17:43.528Z,56.65
2023-04-06T14:20:15.175Z,57.18
2023-04-06T14:22:44.158Z,58.39
2023-04-06T14:25:15.017Z,58.14
2023-04-06T14:27:45.005Z,58.67
2023-04-06T14:30:13.244Z,59.61
2023-04-06T14:32:41.137Z,59.83
2023-04-06T14:35:08.617Z,58.86
2023-04-06T14:37:35.748Z,59.07
2023-04-06T14:40:04.349Z,59.06
2023-04-06T14:42:31.446Z,59.66
2023-04-06T14:44:58.690Z,58.97
2023-04-06T14:47:25.995Z,58.84
2023-04-06T14:49:54.482Z,58.86
2023-04-06T14:52:21.777Z,59.21
2023-04-06T14:54:48.620Z,58.98
2023-04-06T14:57:15.686Z,59.91
2023-04-06T14:59:42.661Z,60.24
2023-04-06T15:02:09.676Z,60.11
2023-04-06T15:04:37.503Z,60.59
2023-04-06T15:07:05.132Z,61.33
2023-04-06T15:09:32.310Z,61.66
2023-04-06T15:11:59.582Z,60.55
2023-04-06T15:14:26.729Z,60.74
2023-04-06T15:16:53.730Z,60.76
2023-04-06T15:19:20.720Z,61.55
2023-04-06T15:21:47.833Z,62.03
2023-04-06T15:24:14.658Z,61.27
2023-04-06T15:26:41.760Z,61.78
2023-04-06T15:29:09.115Z,62.58
2023-04-06T15:31:38.491Z,60.18
2023-04-06T15:34:09.310Z,57.41
2023-04-06T15:36:37.516Z,58.47
2023-04-06T15:39:04.952Z,58.41
2023-04-06T15:41:32.221Z,58.91
2023-04-06T15:43:59.473Z,58.59
2023-04-06T15:46:28.609Z,58.76
2023-04-06T15:48:56.404Z,59.78
2023-04-06T15:51:24.511Z,57.70
2023-04-06T15:53:51.480Z,58.59
2023-04-06T15:56:18.724Z,59.12
2023-04-06T15:58:45.716Z,59.84
2023-04-06T16:01:17.335Z,59.29
2023-04-06T16:03:44.707Z,58.84
2023-04-06T16:06:12.769Z,59.06
2023-04-06T16:08:43.942Z,59.12
2023-04-06T16:11:11.016Z,59.15
2023-04-06T16:13:39.008Z,59.29
2023-04-06T16:16:06.813Z,58.55
2023-04-06T16:18:36.194Z,57.94
2023-04-06T16:21:04.115Z,58.14
2023-04-06T16:23:31.498Z,59.77
2023-04-06T16:25:58.419Z,59.99
2023-04-06T16:28:25.844Z,60.17
2023-04-06T16:30:53.058Z,60.54
2023-04-06T16:33:19.937Z,60.41
2023-04-06T16:35:47.978Z,59.64
2023-04-06T16:38:16.281Z,60.26
2023-04-06T16:40:43.219Z,60.35
2023-04-06T16:43:10.287Z,60.72
2023-04-06T16:45:38.257Z,60.79
2023-04-06T16:48:06.437Z,60.98
2023-04-06T16:50:36.439Z,61.22
2023-04-06T16:53:06.503Z,61.35
2023-04-06T16:55:33.435Z,61.88
2023-04-06T16:58:00.458Z,62.52
2023-04-06T17:00:27.389Z,62.81
2023-04-06T17:02:54.673Z,63.67
2023-04-06T17:05:27.787Z,64.01
2023-04-06T17:08:20.395Z,64.61
2023-04-06T17:10:59.015Z,65.69
2023-04-06T17:13:30.923Z,65.86
2023-04-06T17:15:57.851Z,66.55
2023-04-06T17:18:24.772Z,66.93
2023-04-06T17:20:51.724Z,67.13
2023-04-06T17:23:18.717Z,67.74
2023-04-06T17:25:45.681Z,67.87
2023-04-06T17:28:12.454Z,68.11
2023-04-06T17:30:40.436Z,68.80
2023-04-06T17:33:07.339Z,69.00
2023-04-06T17:35:34.377Z,69.14
2023-04-06T17:38:02.112Z,69.50
2023-04-06T17:40:29.062Z,70.72
2023-04-06T17:42:56.158Z,70.63
2023-04-06T17:45:23.969Z,70.31
2023-04-06T17:47:51.268Z,70.67
2023-04-06T17:50:18.709Z,71.60
2023-04-06T17:55:12.904Z,71.80
2023-04-06T17:57:42.000Z,72.19
2023-04-06T18:00:11.981Z,72.99
2023-04-06T18:02:39.006Z,73.86
2023-04-06T18:05:06.330Z,74.48
2023-04-06T18:07:33.385Z,74.95
2023-04-06T18:10:01.790Z,75.65
2023-04-06T18:12:28.623Z,76.37
2023-04-06T18:14:55.772Z,76.45
2023-04-06T18:17:22.551Z,76.22
2023-04-06T18:19:49.666Z,76.08
2023-04-06T18:22:16.741Z,75.41
2023-04-06T18:24:43.950Z,75.98
2023-04-06T18:27:14.634Z,76.84
2023-04-06T18:29:44.450Z,76.99
2023-04-06T18:32:11.801Z,77.48
2023-04-06T18:34:39.628Z,77.18
2023-04-06T18:37:06.757Z,77.85
2023-04-06T18:39:34.094Z,77.78
2023-04-06T18:42:01.040Z,77.86
2023-04-06T18:44:28.155Z,78.84
2023-04-06T18:46:55.787Z,78.41
2023-04-06T18:49:22.902Z,78.72
2023-04-06T18:51:49.867Z,78.53
2023-04-06T18:54:17.290Z,78.64
2023-04-06T18:56:44.345Z,78.71
2023-04-06T18:59:12.219Z,78.12
2023-04-06T19:01:43.673Z,77.66
2023-04-06T19:04:13.656Z,77.48
2023-04-06T19:06:41.121Z,78.15
2023-04-06T19:09:08.344Z,78.90
2023-04-06T19:11:36.502Z,79.16
2023-04-06T19:14:03.671Z,79.84
2023-04-06T19:16:30.589Z,78.71
2023-04-06T19:18:57.751Z,79.28
2023-04-06T19:21:28.771Z,78.27
2023-04-06T19:23:56.585Z,75.75
2023-04-06T19:26:25.393Z,74.96
2023-04-06T19:28:52.450Z,74.25
2023-04-06T19:31:20.086Z,74.04
2023-04-06T19:33:47.785Z,73.42
2023-04-06T19:36:16.470Z,71.51
2023-04-06T19:38:43.619Z,69.69
2023-04-06T19:41:10.855Z,70.00
2023-04-06T19:43:37.656Z,69.58
2023-04-06T19:46:05.214Z,70.30
2023-04-06T19:48:36.178Z,70.70
2023-04-06T19:51:03.187Z,69.92
2023-04-06T19:53:30.329Z,70.53
2023-04-06T19:55:57.152Z,70.31
2023-04-06T19:58:25.055Z,70.88
2023-04-06T20:01:00.921Z,71.58
2023-04-06T20:03:29.095Z,71.16
2023-04-06T20:08:41.350Z,69.58
2023-04-06T20:11:08.347Z,68.10
2023-04-06T20:13:36.304Z,67.01
2023-04-06T20:16:03.760Z,66.20
2023-04-06T20:18:33.858Z,66.60
2023-04-06T20:21:01.080Z,66.50
2023-04-06T20:23:28.118Z,67.12
2023-04-06T20:25:55.507Z,67.84
2023-04-06T20:28:23.253Z,68.33
2023-04-06T20:30:52.510Z,68.57
2023-04-06T20:33:19.563Z,68.67
2023-04-06T20:35:47.236Z,68.52
2023-04-06T20:38:14.654Z,67.78
2023-04-06T20:40:45.234Z,67.03
2023-04-06T20:43:12.168Z,66.89
2023-04-06T20:45:39.280Z,67.14
2023-04-06T20:48:06.401Z,67.65
2023-04-06T20:50:33.785Z,68.13
2023-04-06T20:53:00.636Z,68.68
2023-04-06T20:55:27.939Z,68.58
2023-04-06T20:57:54.922Z,68.94
2023-04-06T21:00:21.994Z,69.46
2023-04-06T21:02:49.328Z,68.79
2023-04-06T21:05:16.685Z,69.08
2023-04-06T21:07:43.617Z,68.66
2023-04-06T21:10:10.990Z,68.28
2023-04-06T21:12:37.854Z,68.54
2023-04-06T21:15:05.608Z,68.89
2023-04-06T21:17:32.586Z,68.49
2023-04-06T21:19:59.446Z,68.41
2023-04-06T21:22:26.671Z,68.61
2023-04-06T21:24:53.544Z,68.34
2023-04-06T21:27:20.450Z,67.15
2023-04-06T21:29:47.583Z,66.72
2023-04-06T21:32:14.654Z,67.18
2023-04-06T21:34:45.771Z,67.08
2023-04-06T21:37:15.196Z,67.92
2023-04-06T21:39:46.371Z,67.77
2023-04-06T21:42:13.692Z,67.88
2023-04-06T21:44:40.639Z,67.98
2023-04-06T21:47:07.645Z,68.15
2023-04-06T21:49:34.831Z,68.50
2023-04-06T21:52:01.910Z,68.77
2023-04-06T21:54:33.979Z,68.75
2023-04-06T21:57:01.985Z,69.15
2023-04-06T21:59:29.437Z,68.88
2023-04-06T22:01:57.281Z,68.99
2023-04-06T22:04:25.553Z,68.51
2023-04-06T22:06:52.837Z,68.03
2023-04-06T22:09:19.656Z,68.23
2023-04-06T22:11:46.940Z,67.82
2023-04-06T22:14:14.139Z,68.26
2023-04-06T22:16:41.178Z,66.75
2023-04-06T22:19:08.103Z,66.70
2023-04-06T22:21:34.978Z,65.13
2023-04-06T22:24:02.018Z,62.75
2023-04-06T22:26:29.108Z,63.16
2023-04-06T22:28:56.042Z,63.94
2023-04-06T22:31:22.987Z,63.68
2023-04-06T22:33:50.181Z,64.23
2023-04-06T22:36:17.238Z,64.53
2023-04-06T22:38:44.598Z,64.94
2023-04-06T22:41:11.892Z,65.29
2023-04-06T22:43:39.268Z,65.72
2023-04-06T22:46:06.475Z,66.28
2023-04-06T22:48:33.734Z,65.37
2023-04-06T22:51:00.842Z,65.52
2023-04-06T22:53:27.924Z,65.65
2023-04-06T22:55:54.875Z,65.13
2023-04-06T22:58:22.050Z,64.54
2023-04-06T23:00:48.896Z,65.10
2023-04-06T23:03:16.097Z,64.90
2023-04-06T23:05:43.222Z,65.00
2023-04-06T23:08:10.319Z,65.26
2023-04-06T23:10:38.641Z,65.07
2023-04-06T23:13:05.772Z,66.12
2023-04-06T23:15:33.134Z,66.43
2023-04-06T23:18:00.228Z,66.22
2023-04-06T23:20:27.360Z,66.34
2023-04-06T23:22:54.328Z,66.88
2023-04-06T23:25:21.696Z,66.78
2023-04-06T23:27:48.510Z,66.43
2023-04-06T23:30:15.795Z,65.04
2023-04-06T23:32:44.200Z,65.25
2023-04-06T23:35:11.325Z,65.46
2023-04-06T23:37:38.489Z,64.88
2023-04-06T23:40:06.350Z,64.42
2023-04-06T23:42:33.374Z,64.38
2023-04-06T23:45:02.361Z,64.69
2023-04-06T23:47:29.423Z,65.20
2023-04-06T23:49:56.550Z,65.26
2023-04-06T23:52:23.473Z,64.98
2023-04-06T23:54:50.394Z,65.18
2023-04-06T23:57:17.222Z,65.45
2023-04-06T23:59:44.201Z,66.03
